Time;durP1;ratioP1;P1;durP2;ratioP2;P2;SDS_P1;SDS_P2;PMS_P1;PMS_P2;Temp;Humidity;BMP_temperature;BMP_pressure;BME280_temperature;BME280_humidity;BME280_pressure;Samples;Min_cycle;Max_cycle;Signal;HPM_P1;HPM_P2
2022/02/19 00:01:11;;;;;;;40.20;37.10;;;6.30;99.90;;;;;;4365042;32;20220;-60
2022/02/19 00:03:38;;;;;;;37.87;35.27;;;6.30;99.90;;;;;;4360365;32;20165;-60
2022/02/19 00:06:05;;;;;;;38.67;35.13;;;6.20;99.90;;;;;;4366334;32;20179;-63
2022/02/19 00:08:35;;;;;;;38.50;35.63;;;6.20;99.90;;;;;;4364905;32;20227;-62
2022/02/19 00:11:03;;;;;;;38.13;35.10;;;6.10;99.90;;;;;;4362842;32;20176;-61
2022/02/19 00:13:31;;;;;;;38.00;35.13;;;6.10;99.90;;;;;;4366357;32;20179;-62
2022/02/19 00:15:58;;;;;;;38.57;36.07;;;6.10;99.90;;;;;;4366289;32;20175;-61
2022/02/19 00:18:27;;;;;;;36.93;34.40;;;6.00;99.90;;;;;;4365603;32;20601;-60
2022/02/19 00:20:55;;;;;;;37.33;34.30;;;6.00;99.90;;;;;;4374081;32;20235;-60
2022/02/19 00:23:26;;;;;;;41.00;38.33;;;5.90;99.90;;;;;;4376449;32;20198;-63
2022/02/19 00:25:53;;;;;;;39.70;36.43;;;5.90;99.90;;;;;;4368614;32;20153;-61
2022/02/19 00:28:21;;;;;;;39.43;36.33;;;5.90;99.90;;;;;;4375238;32;20152;-62
2022/02/19 00:30:48;;;;;;;35.10;32.77;;;5.80;99.90;;;;;;4376809;32;20186;-61
2022/02/19 00:33:14;;;;;;;36.23;33.07;;;5.70;99.90;;;;;;4374159;32;20195;-62
2022/02/19 00:35:42;;;;;;;39.23;36.10;;;5.80;99.90;;;;;;4362161;32;20180;-62
2022/02/19 00:38:09;;;;;;;34.03;31.30;;;5.90;99.90;;;;;;4373712;32;20156;-61
2022/02/19 00:40:36;;;;;;;34.30;31.50;;;5.90;99.90;;;;;;4375542;32;20182;-60
2022/02/19 00:43:03;;;;;;;35.70;32.90;;;6.00;99.90;;;;;;4374260;32;20157;-62
2022/02/19 00:45:31;;;;;;;40.37;37.00;;;6.00;99.90;;;;;;4368355;32;20180;-60
2022/02/19 00:47:58;;;;;;;36.03;33.37;;;6.10;99.90;;;;;;4370268;32;20213;-62
2022/02/19 00:50:25;;;;;;;33.13;30.67;;;6.10;99.90;;;;;;4370729;32;20148;-61
2022/02/19 00:52:55;;;;;;;32.50;30.27;;;6.10;99.90;;;;;;4376972;32;20239;-61
2022/02/19 00:55:22;;;;;;;34.33;32.00;;;6.10;99.90;;;;;;4377555;32;20180;-62
2022/02/19 00:57:48;;;;;;;31.97;29.77;;;6.10;99.90;;;;;;4365865;32;20167;-60
2022/02/19 01:00:16;;;;;;;29.23;27.33;;;6.10;99.90;;;;;;4362538;32;20161;-60
2022/02/19 01:02:44;;;;;;;36.43;34.13;;;6.10;99.90;;;;;;4367444;32;20153;-60
2022/02/19 01:05:11;;;;;;;32.47;30.33;;;6.10;99.90;;;;;;4377344;32;20592;-63
2022/02/19 01:07:38;;;;;;;33.43;30.50;;;6.20;99.90;;;;;;4369107;32;20168;-62
2022/02/19 01:10:07;;;;;;;30.60;28.30;;;6.10;99.90;;;;;;4365006;32;20216;-61
2022/02/19 01:12:33;;;;;;;28.77;26.13;;;6.10;99.90;;;;;;4377337;32;20579;-61
2022/02/19 01:15:00;;;;;;;29.50;27.33;;;6.10;99.90;;;;;;4374778;32;20206;-61
2022/02/19 01:17:27;;;;;;;33.23;30.80;;;6.10;99.90;;;;;;4375294;32;20722;-60
2022/02/19 01:19:55;;;;;;;35.33;32.23;;;6.10;99.90;;;;;;4362999;32;20164;-61
2022/02/19 01:22:24;;;;;;;29.47;27.00;;;6.10;99.90;;;;;;4362348;32;20192;-62
2022/02/19 01:24:50;;;;;;;31.13;28.63;;;6.00;99.90;;;;;;4364744;32;20216;-60
2022/02/19 01:27:17;;;;;;;30.50;28.13;;;6.10;99.90;;;;;;4375410;32;20610;-62
2022/02/19 01:29:44;;;;;;;30.07;28.00;;;6.00;99.90;;;;;;4367577;32;20265;-60
2022/02/19 01:32:11;;;;;;;26.83;25.03;;;6.00;99.90;;;;;;4368898;32;20364;-61
2022/02/19 01:34:39;;;;;;;30.57;27.93;;;6.10;99.90;;;;;;4371642;32;20157;-60
2022/02/19 01:37:07;;;;;;;27.40;25.50;;;6.00;99.90;;;;;;4361689;32;20226;-62
2022/02/19 01:39:34;;;;;;;31.70;29.60;;;6.00;99.90;;;;;;4361369;32;20213;-61
2022/02/19 01:42:03;;;;;;;30.30;27.77;;;6.00;99.90;;;;;;4363246;32;20193;-61
2022/02/19 01:44:39;;;;;;;31.90;29.23;;;6.00;99.90;;;;;;4361676;32;20176;-60
2022/02/19 01:47:07;;;;;;;29.10;26.43;;;6.00;99.90;;;;;;4362001;32;20160;-61
2022/02/19 01:49:34;;;;;;;30.50;28.13;;;6.00;99.90;;;;;;4365778;32;20170;-61
2022/02/19 01:52:01;;;;;;;31.50;29.83;;;6.00;99.90;;;;;;4362589;32;20232;-61
2022/02/19 01:54:30;;;;;;;32.67;30.37;;;6.00;99.90;;;;;;4362161;32;20179;-60
2022/02/19 01:57:00;;;;;;;30.47;28.17;;;6.00;99.90;;;;;;4365380;32;20227;-61
2022/02/19 01:59:27;;;;;;;28.97;26.67;;;6.00;99.90;;;;;;4361131;32;20164;-59
2022/02/19 02:01:53;;;;;;;32.50;30.20;;;6.10;99.90;;;;;;4362289;32;20195;-61
2022/02/19 02:04:20;;;;;;;29.30;27.10;;;6.10;99.90;;;;;;4367963;32;20577;-63
2022/02/19 02:06:48;;;;;;;28.87;26.83;;;6.10;99.90;;;;;;4373982;32;20167;-61
2022/02/19 02:09:16;;;;;;;28.90;26.67;;;6.10;99.90;;;;;;4361537;33;20149;-61
2022/02/19 02:11:45;;;;;;;28.20;26.07;;;6.10;99.90;;;;;;4362211;32;20200;-60
2022/02/19 02:14:12;;;;;;;28.77;26.30;;;6.10;99.90;;;;;;4362299;32;20216;-61
2022/02/19 02:16:43;;;;;;;28.47;26.17;;;6.10;99.90;;;;;;4354469;32;20695;-59
2022/02/19 02:19:11;;;;;;;28.93;26.47;;;6.10;99.90;;;;;;4356356;32;20497;-59
2022/02/19 02:21:40;;;;;;;28.40;26.63;;;6.10;99.90;;;;;;4353062;32;20314;-59
2022/02/19 02:24:14;;;;;;;29.40;27.07;;;6.10;99.90;;;;;;4355488;32;20278;-61
2022/02/19 02:26:41;;;;;;;29.57;26.97;;;6.00;99.90;;;;;;4354947;32;20199;-62
2022/02/19 02:29:10;;;;;;;28.50;26.80;;;6.10;99.90;;;;;;4352421;32;20291;-59
2022/02/19 02:31:36;;;;;;;30.17;27.70;;;6.10;99.90;;;;;;4353125;32;20236;-62
2022/02/19 02:34:03;;;;;;;31.43;29.27;;;6.00;99.90;;;;;;4358137;32;20294;-63
2022/02/19 02:36:39;;;;;;;29.87;27.87;;;6.00;99.90;;;;;;4360169;32;20588;-58
2022/02/19 02:39:09;;;;;;;31.10;28.83;;;6.00;99.90;;;;;;4357494;32;20176;-59
2022/02/19 02:41:36;;;;;;;33.27;31.17;;;6.00;99.90;;;;;;4355020;32;20747;-59
2022/02/19 02:44:03;;;;;;;30.10;27.90;;;5.90;99.90;;;;;;4357458;32;20196;-59
2022/02/19 02:46:30;;;;;;;37.03;34.43;;;5.80;99.90;;;;;;4362843;32;20215;-60
2022/02/19 02:48:58;;;;;;;28.87;26.90;;;5.80;99.90;;;;;;4362210;32;20244;-59
2022/02/19 02:51:24;;;;;;;31.97;29.90;;;5.80;99.90;;;;;;4361127;32;20209;-59
2022/02/19 02:53:55;;;;;;;32.80;29.93;;;5.90;99.90;;;;;;4363735;32;20212;-60
2022/02/19 02:56:22;;;;;;;32.57;30.13;;;5.90;99.90;;;;;;4361671;32;20156;-60
2022/02/19 02:58:49;;;;;;;31.33;28.73;;;5.90;99.90;;;;;;4362627;32;20192;-60
2022/02/19 03:01:16;;;;;;;30.47;28.17;;;5.90;99.90;;;;;;4368043;32;20493;-60
2022/02/19 03:03:45;;;;;;;33.07;30.73;;;5.90;99.90;;;;;;4363927;32;20205;-60
2022/02/19 03:06:14;;;;;;;31.77;29.27;;;6.00;99.90;;;;;;4367850;32;20151;-60
2022/02/19 03:08:41;;;;;;;33.73;31.50;;;6.00;99.90;;;;;;4369334;32;20192;-61
2022/02/19 03:11:10;;;;;;;32.53;30.00;;;6.00;99.90;;;;;;4372309;32;20175;-60
2022/02/19 03:13:36;;;;;;;31.23;28.87;;;6.00;99.90;;;;;;4366433;32;20235;-60
2022/02/19 03:16:06;;;;;;;33.00;29.90;;;5.90;99.90;;;;;;4370106;32;20540;-61
2022/02/19 03:18:33;;;;;;;34.73;31.63;;;6.00;99.90;;;;;;4374028;32;20255;-61
2022/02/19 03:21:00;;;;;;;30.17;28.17;;;5.90;99.90;;;;;;4363353;32;20183;-61
2022/02/19 03:23:27;;;;;;;37.70;34.77;;;5.80;99.90;;;;;;4364762;32;20227;-60
2022/02/19 03:25:55;;;;;;;34.33;31.03;;;5.80;99.90;;;;;;4370972;32;20231;-60
2022/02/19 03:28:23;;;;;;;32.70;30.13;;;5.80;99.90;;;;;;4374942;32;20177;-60
2022/02/19 03:30:52;;;;;;;38.60;35.00;;;5.80;99.90;;;;;;4369631;32;20554;-60
2022/02/19 03:33:19;;;;;;;34.30;31.80;;;5.80;99.90;;;;;;4362658;32;20482;-61
2022/02/19 03:35:46;;;;;;;30.00;27.37;;;5.70;99.90;;;;;;4363346;32;20195;-61
2022/02/19 03:38:13;;;;;;;33.07;30.67;;;5.80;99.90;;;;;;4365096;32;20234;-60
2022/02/19 03:40:40;;;;;;;28.33;25.97;;;5.90;99.90;;;;;;4362080;32;20145;-61
2022/02/19 03:43:06;;;;;;;30.23;26.97;;;5.90;99.90;;;;;;4369512;32;20191;-61
2022/02/19 03:45:37;;;;;;;31.57;28.67;;;5.90;99.90;;;;;;4374723;32;20156;-62
2022/02/19 03:48:04;;;;;;;26.97;24.57;;;5.90;99.90;;;;;;4364587;32;20157;-61
2022/02/19 03:50:31;;;;;;;29.93;27.20;;;5.90;99.90;;;;;;4364558;32;20137;-59
2022/02/19 03:52:58;;;;;;;28.47;25.53;;;5.90;99.90;;;;;;4360836;32;20233;-60
2022/02/19 03:55:24;;;;;;;28.63;26.40;;;5.90;99.90;;;;;;4361279;32;20152;-61
2022/02/19 03:57:51;;;;;;;28.53;26.50;;;5.80;99.90;;;;;;4363048;32;20532;-61
2022/02/19 04:00:18;;;;;;;32.33;29.67;;;5.80;99.90;;;;;;4363047;32;20156;-60
2022/02/19 04:02:47;;;;;;;32.57;30.07;;;5.90;99.90;;;;;;4363734;32;20600;-59
2022/02/19 04:05:15;;;;;;;28.33;25.90;;;5.90;99.90;;;;;;4366500;32;20162;-59
2022/02/19 04:07:42;;;;;;;29.67;27.43;;;5.90;99.90;;;;;;4367063;32;20230;-59
2022/02/19 04:10:11;;;;;;;33.63;31.17;;;5.80;99.90;;;;;;4363733;32;20140;-60
2022/02/19 04:12:38;;;;;;;28.87;26.37;;;5.80;99.90;;;;;;4362854;32;20215;-59
2022/02/19 04:15:06;;;;;;;28.43;25.93;;;5.70;99.90;;;;;;4367462;32;20156;-60
2022/02/19 04:17:33;;;;;;;28.00;25.60;;;5.70;99.90;;;;;;4368291;32;20571;-61
2022/02/19 04:20:01;;;;;;;27.57;24.83;;;5.70;99.90;;;;;;4363976;32;20159;-61
2022/02/19 04:22:28;;;;;;;27.93;25.30;;;5.80;99.90;;;;;;4367567;32;20161;-61
2022/02/19 04:24:55;;;;;;;28.23;25.87;;;5.90;99.90;;;;;;4363140;32;20145;-60
2022/02/19 04:27:22;;;;;;;29.03;26.73;;;5.90;99.90;;;;;;4363376;32;20540;-61
2022/02/19 04:29:49;;;;;;;26.57;24.33;;;5.80;99.90;;;;;;4362604;32;20141;-61
2022/02/19 04:32:16;;;;;;;29.80;27.83;;;5.80;99.90;;;;;;4368866;32;20160;-61
2022/02/19 04:34:43;;;;;;;27.00;24.63;;;5.90;99.90;;;;;;4372666;32;20564;-61
2022/02/19 04:37:11;;;;;;;28.13;26.03;;;5.90;99.90;;;;;;4362595;32;20220;-60
2022/02/19 04:39:38;;;;;;;31.03;28.50;;;5.80;99.90;;;;;;4363226;32;20468;-61
2022/02/19 04:42:05;;;;;;;25.73;23.90;;;5.80;99.90;;;;;;4369441;32;20152;-60
2022/02/19 04:44:34;;;;;;;23.27;21.37;;;5.80;99.90;;;;;;4365297;32;20515;-60
2022/02/19 04:47:04;;;;;;;24.70;22.57;;;5.90;99.90;;;;;;4375861;32;20153;-61
2022/02/19 04:49:31;;;;;;;25.60;23.57;;;5.90;99.90;;;;;;4376201;32;20223;-61
2022/02/19 04:51:58;;;;;;;25.90;24.20;;;5.90;99.90;;;;;;4366290;32;20221;-61
2022/02/19 04:54:26;;;;;;;25.73;23.70;;;5.90;99.90;;;;;;4372927;32;20166;-60
2022/02/19 04:56:53;;;;;;;27.43;25.10;;;5.90;99.90;;;;;;4365652;32;20145;-60
2022/02/19 04:59:19;;;;;;;28.07;25.40;;;5.70;99.90;;;;;;4363489;32;20165;-61
2022/02/19 05:01:48;;;;;;;24.90;23.00;;;5.80;99.90;;;;;;4372994;32;20156;-60
2022/02/19 05:04:17;;;;;;;27.80;24.93;;;5.80;99.90;;;;;;4371049;32;20175;-61
2022/02/19 05:06:44;;;;;;;25.20;23.13;;;5.70;99.90;;;;;;4362133;32;20159;-61
2022/02/19 05:09:10;;;;;;;28.33;25.70;;;5.70;99.90;;;;;;4362398;32;20148;-61
2022/02/19 05:11:38;;;;;;;31.30;28.93;;;5.60;99.90;;;;;;4362035;32;20501;-61
2022/02/19 05:14:05;;;;;;;26.67;23.87;;;5.40;99.90;;;;;;4363890;32;20477;-60
2022/02/19 05:16:32;;;;;;;28.70;26.47;;;5.40;99.90;;;;;;4368312;32;20220;-61
2022/02/19 05:18:59;;;;;;;28.67;26.03;;;5.30;99.90;;;;;;4369411;32;20163;-61
2022/02/19 05:21:26;;;;;;;27.37;25.27;;;5.20;99.90;;;;;;4376346;32;20216;-61
2022/02/19 05:23:53;;;;;;;26.50;24.57;;;5.40;99.90;;;;;;4376814;32;20148;-60
2022/02/19 05:26:21;;;;;;;30.07;27.67;;;5.30;99.90;;;;;;4367323;32;20232;-61
2022/02/19 05:28:49;;;;;;;33.03;30.27;;;5.40;99.90;;;;;;4365595;32;20156;-60
2022/02/19 05:31:16;;;;;;;30.30;28.00;;;5.40;99.90;;;;;;4371734;32;20514;-61
2022/02/19 05:33:43;;;;;;;33.27;30.27;;;5.40;99.90;;;;;;4364784;32;20183;-60
2022/02/19 05:36:10;;;;;;;29.97;27.67;;;5.50;99.90;;;;;;4369164;32;20235;-61
2022/02/19 05:38:36;;;;;;;27.97;25.93;;;5.60;99.90;;;;;;4364377;32;20224;-60
2022/02/19 05:41:03;;;;;;;29.27;26.60;;;5.60;99.90;;;;;;4362053;32;20240;-61
2022/02/19 05:43:30;;;;;;;28.37;26.03;;;5.70;99.90;;;;;;4361859;33;20153;-60
2022/02/19 05:45:58;;;;;;;30.73;28.17;;;5.70;99.90;;;;;;4362595;32;20149;-60
2022/02/19 05:48:25;;;;;;;26.60;24.43;;;5.60;99.90;;;;;;4370354;32;20269;-60
2022/02/19 05:50:52;;;;;;;28.17;25.93;;;5.50;99.90;;;;;;4376156;32;20144;-61
2022/02/19 05:53:19;;;;;;;30.47;28.10;;;5.50;99.90;;;;;;4371835;32;20165;-61
2022/02/19 05:55:47;;;;;;;28.03;24.73;;;5.60;99.90;;;;;;4361899;33;20145;-61
2022/02/19 05:58:15;;;;;;;27.83;25.80;;;5.60;99.90;;;;;;4370892;32;20152;-60
2022/02/19 06:00:41;;;;;;;27.40;25.37;;;5.60;99.90;;;;;;4363939;32;20137;-60
2022/02/19 06:03:09;;;;;;;31.03;28.87;;;5.60;99.90;;;;;;4361529;32;20453;-60
2022/02/19 06:05:36;;;;;;;30.30;27.77;;;5.60;99.90;;;;;;4367119;32;20224;-60
2022/02/19 06:08:03;;;;;;;29.60;27.37;;;5.60;99.90;;;;;;4362368;32;20600;-61
2022/02/19 06:10:30;;;;;;;29.13;26.77;;;5.60;99.90;;;;;;4373793;32;20216;-60
2022/02/19 06:12:57;;;;;;;26.70;24.37;;;5.60;99.90;;;;;;4364573;32;20144;-61
2022/02/19 06:15:24;;;;;;;29.20;26.60;;;5.70;99.90;;;;;;4369251;32;20596;-60
2022/02/19 06:17:51;;;;;;;26.30;24.20;;;5.70;99.90;;;;;;4372905;32;20569;-61
2022/02/19 06:20:19;;;;;;;29.97;27.60;;;5.70;99.90;;;;;;4367678;32;20286;-60
2022/02/19 06:22:46;;;;;;;30.67;28.27;;;5.70;99.90;;;;;;4362491;32;20196;-60
2022/02/19 06:25:14;;;;;;;29.07;26.37;;;5.70;99.90;;;;;;4372429;32;20160;-57
2022/02/19 06:27:40;;;;;;;26.87;23.77;;;5.70;99.90;;;;;;4364782;32;20561;-60
2022/02/19 06:30:10;;;;;;;31.23;28.73;;;5.70;99.90;;;;;;4364174;32;20174;-61
2022/02/19 06:32:37;;;;;;;33.50;30.80;;;5.70;99.90;;;;;;4365151;32;20133;-60
2022/02/19 06:35:04;;;;;;;29.60;27.73;;;5.70;99.90;;;;;;4366223;32;20488;-59
2022/02/19 06:37:38;;;;;;;28.30;26.20;;;5.70;99.90;;;;;;4364280;32;20461;-60
2022/02/19 06:40:06;;;;;;;31.60;28.63;;;5.70;99.90;;;;;;4372187;32;20228;-60
2022/02/19 06:42:33;;;;;;;30.53;28.37;;;5.70;99.90;;;;;;4361764;32;20140;-61
2022/02/19 06:45:00;;;;;;;29.60;27.47;;;5.60;99.90;;;;;;4375949;32;20157;-61
2022/02/19 06:47:27;;;;;;;31.70;28.83;;;5.70;99.90;;;;;;4367138;32;20196;-61
2022/02/19 06:49:53;;;;;;;31.80;29.10;;;5.70;99.90;;;;;;4372389;32;20150;-60
2022/02/19 06:52:20;;;;;;;30.87;28.60;;;5.60;99.90;;;;;;4363935;32;20140;-61
2022/02/19 06:54:48;;;;;;;31.70;29.53;;;5.60;99.90;;;;;;4361181;32;20615;-60
2022/02/19 06:57:15;;;;;;;30.87;28.57;;;5.60;99.90;;;;;;4360953;32;20148;-61
2022/02/19 06:59:42;;;;;;;32.83;30.47;;;5.60;99.90;;;;;;4362577;32;20221;-61
2022/02/19 07:02:10;;;;;;;32.43;29.93;;;5.60;99.90;;;;;;4369126;32;20544;-60
2022/02/19 07:04:36;;;;;;;34.40;31.10;;;5.60;99.90;;;;;;4376440;32;20470;-60
2022/02/19 07:07:06;;;;;;;33.30;30.77;;;5.60;99.90;;;;;;4368413;32;20447;-60
2022/02/19 07:09:33;;;;;;;35.93;33.13;;;5.70;99.90;;;;;;4370018;32;20442;-60
2022/02/19 07:12:01;;;;;;;31.13;29.03;;;5.70;99.90;;;;;;4367127;32;20456;-61
2022/02/19 07:14:28;;;;;;;28.80;26.97;;;5.80;99.90;;;;;;4362826;32;20149;-60
2022/02/19 07:17:00;;;;;;;32.43;30.27;;;5.70;99.90;;;;;;4366840;32;20199;-61
2022/02/19 07:19:27;;;;;;;30.53;28.73;;;5.70;99.90;;;;;;4361299;32;20216;-59
2022/02/19 07:21:53;;;;;;;35.53;32.87;;;5.70;99.90;;;;;;4366841;32;20232;-61
2022/02/19 07:24:20;;;;;;;30.33;28.03;;;5.80;99.90;;;;;;4362677;32;20179;-61
2022/02/19 07:26:50;;;;;;;29.93;27.70;;;5.80;99.90;;;;;;4365298;32;20231;-61
2022/02/19 07:29:18;;;;;;;30.93;28.50;;;5.80;99.90;;;;;;4366660;32;20156;-60
2022/02/19 07:31:45;;;;;;;28.30;25.90;;;5.70;99.90;;;;;;4365475;32;20140;-60
2022/02/19 07:34:13;;;;;;;29.23;27.23;;;5.70;99.90;;;;;;4366535;32;20231;-60
2022/02/19 07:36:43;;;;;;;25.23;23.60;;;5.80;99.90;;;;;;4367808;32;20141;-61
2022/02/19 07:39:10;;;;;;;25.90;23.63;;;5.80;99.90;;;;;;4360196;32;20179;-61
2022/02/19 07:41:38;;;;;;;28.43;25.87;;;5.90;99.90;;;;;;4364258;32;20169;-60
2022/02/19 07:44:06;;;;;;;29.40;26.83;;;6.00;99.90;;;;;;4365339;32;20218;-58
2022/02/19 07:46:34;;;;;;;27.43;25.30;;;6.00;99.90;;;;;;4366609;32;20580;-60
2022/02/19 07:58:18;;;;;;;38.67;25.37;;;6.10;99.90;;;;;;4367240;32;20144;-61
2022/02/19 08:00:02;;;;;;;27.20;24.60;;;6.20;99.90;;;;;;4366912;32;20229;-60
2022/02/19 08:02:30;;;;;;;29.03;27.03;;;6.30;99.90;;;;;;4363378;32;20633;-62
2022/02/19 08:04:57;;;;;;;27.53;25.90;;;6.20;99.90;;;;;;4367616;32;20217;-60
2022/02/19 08:07:24;;;;;;;28.00;25.60;;;6.20;99.90;;;;;;4367974;32;20173;-62
2022/02/19 08:09:50;;;;;;;26.13;24.10;;;6.30;99.90;;;;;;4362080;32;20140;-61
2022/02/19 08:12:19;;;;;;;25.93;23.93;;;6.20;99.90;;;;;;4363993;32;20179;-60
2022/02/19 08:14:46;;;;;;;30.47;27.97;;;6.30;99.90;;;;;;4365701;32;20278;-60
2022/02/19 08:17:12;;;;;;;26.47;24.13;;;6.30;99.90;;;;;;4362705;32;20185;-59
2022/02/19 08:19:42;;;;;;;29.00;26.27;;;6.30;99.90;;;;;;4363468;32;20491;-61
2022/02/19 08:22:09;;;;;;;30.93;28.77;;;6.30;99.90;;;;;;4363648;32;20507;-60
2022/02/19 08:24:36;;;;;;;31.23;28.37;;;6.30;99.90;;;;;;4361950;32;20648;-61
2022/02/19 08:27:03;;;;;;;31.53;28.83;;;6.50;99.90;;;;;;4362568;32;20494;-59
2022/02/19 08:29:30;;;;;;;27.73;26.03;;;6.50;99.90;;;;;;4360003;32;20149;-60
2022/02/19 08:31:57;;;;;;;26.97;24.53;;;6.60;99.90;;;;;;4366216;32;20180;-62
2022/02/19 08:34:23;;;;;;;25.87;23.43;;;6.60;99.90;;;;;;4365760;32;20176;-61
2022/02/19 08:36:56;;;;;;;31.73;29.07;;;6.40;99.90;;;;;;4364352;32;20610;-61
2022/02/19 08:39:22;;;;;;;32.13;29.60;;;6.30;99.90;;;;;;4365419;32;20129;-60
2022/02/19 08:41:49;;;;;;;27.10;25.37;;;6.40;99.90;;;;;;4364886;32;20216;-60
2022/02/19 08:44:16;;;;;;;26.43;24.10;;;6.70;99.90;;;;;;4368207;32;20179;-62
2022/02/19 08:46:46;;;;;;;26.03;24.17;;;6.80;99.90;;;;;;4369646;32;20165;-61
2022/02/19 08:49:13;;;;;;;28.10;25.87;;;6.70;99.90;;;;;;4366448;32;20239;-62
2022/02/19 08:51:39;;;;;;;30.03;27.63;;;6.60;99.90;;;;;;4367195;32;20183;-60
2022/02/19 08:54:09;;;;;;;32.60;29.93;;;6.50;99.90;;;;;;4366381;32;20254;-60
2022/02/19 08:56:36;;;;;;;30.57;28.20;;;6.50;99.90;;;;;;4365283;32;20220;-63
2022/02/19 08:59:03;;;;;;;35.43;32.73;;;6.70;99.90;;;;;;4365962;32;20247;-61
2022/02/19 09:01:30;;;;;;;29.77;27.30;;;7.10;99.90;;;;;;4364982;32;20239;-60
2022/02/19 09:03:59;;;;;;;32.03;29.83;;;7.30;99.90;;;;;;4367003;32;20145;-61
2022/02/19 09:06:26;;;;;;;32.97;30.53;;;7.40;99.90;;;;;;4364464;32;20145;-61
2022/02/19 09:08:52;;;;;;;31.00;28.77;;;7.50;99.90;;;;;;4366274;32;20153;-62
2022/02/19 09:11:21;;;;;;;31.97;29.53;;;7.50;99.90;;;;;;4364864;32;20129;-61
2022/02/19 09:13:48;;;;;;;31.97;29.77;;;7.50;99.90;;;;;;4367243;32;20296;-62
2022/02/19 09:16:15;;;;;;;31.90;28.40;;;7.40;99.90;;;;;;4363086;32;20227;-61
2022/02/19 09:18:42;;;;;;;28.87;26.77;;;7.40;99.90;;;;;;4361282;32;20215;-61
2022/02/19 09:21:09;;;;;;;30.47;28.37;;;7.40;99.90;;;;;;4361783;32;20170;-63
2022/02/19 09:23:36;;;;;;;28.43;26.37;;;7.40;99.90;;;;;;4362213;32;20142;-62
2022/02/19 09:26:03;;;;;;;33.50;31.00;;;7.70;99.90;;;;;;4369830;32;20215;-61
2022/02/19 09:28:31;;;;;;;33.07;30.50;;;7.70;99.90;;;;;;4361154;32;20169;-61
2022/02/19 09:30:58;;;;;;;32.23;29.63;;;7.90;99.90;;;;;;4361957;32;20164;-60
2022/02/19 09:33:25;;;;;;;28.73;26.70;;;8.10;99.90;;;;;;4362741;32;20228;-59
2022/02/19 09:35:51;;;;;;;31.00;28.73;;;8.20;99.90;;;;;;4367037;32;20283;-61
2022/02/19 09:38:19;;;;;;;34.43;32.00;;;8.10;99.90;;;;;;4368931;32;20239;-61
2022/02/19 09:40:46;;;;;;;33.50;31.37;;;8.00;99.90;;;;;;4365283;32;20144;-60
2022/02/19 09:43:13;;;;;;;32.97;30.60;;;7.90;99.90;;;;;;4365986;32;20231;-60
2022/02/19 09:45:42;;;;;;;35.47;32.97;;;7.80;99.90;;;;;;4369846;32;20172;-63
2022/02/19 09:48:12;;;;;;;34.73;32.63;;;7.90;99.90;;;;;;4367123;32;20228;-64
2022/02/19 09:50:39;;;;;;;35.93;33.13;;;8.20;99.90;;;;;;4365259;32;20201;-62
2022/02/19 09:53:06;;;;;;;39.73;37.13;;;8.20;99.90;;;;;;4368166;32;20157;-61
2022/02/19 09:55:33;;;;;;;33.90;31.90;;;8.20;99.90;;;;;;4368991;32;20510;-62
2022/02/19 09:58:01;;;;;;;33.80;31.33;;;8.00;99.90;;;;;;4365267;32;20168;-62
2022/02/19 10:00:38;;;;;;;35.47;32.70;;;7.80;99.90;;;;;;4359972;32;21033;-61
2022/02/19 10:03:11;;;;;;;36.20;33.73;;;7.80;99.90;;;;;;4369200;32;20162;-60
2022/02/19 10:05:38;;;;;;;33.87;31.40;;;8.00;99.90;;;;;;4365789;32;20194;-62
2022/02/19 10:08:07;;;;;;;36.10;33.83;;;8.20;99.90;;;;;;4367159;32;20153;-61
2022/02/19 10:10:35;;;;;;;38.53;36.03;;;8.50;99.90;;;;;;4367463;32;20203;-62
2022/02/19 10:13:04;;;;;;;34.93;32.63;;;8.70;99.90;;;;;;4363680;32;20194;-61
2022/02/19 10:15:40;;;;;;;35.93;33.70;;;8.90;99.90;;;;;;4368780;32;20256;-62
2022/02/19 10:21:15;;;;;;;35.47;33.23;;;8.80;99.90;;;;;;4370900;32;1835985;-61
2022/02/19 10:23:44;;;;;;;34.73;32.43;;;8.50;99.90;;;;;;4425481;32;20171;-62
2022/02/19 10:26:12;;;;;;;40.00;37.50;;;8.40;99.90;;;;;;4426039;32;20147;-61
2022/02/19 10:28:39;;;;;;;39.07;36.47;;;8.60;99.90;;;;;;4423364;32;20172;-63
2022/02/19 10:31:16;;;;;;;39.70;37.07;;;9.00;99.90;;;;;;4427724;32;20181;-61
2022/02/19 10:33:44;;;;;;;45.77;42.93;;;9.40;99.90;;;;;;4433810;32;20199;-61
2022/02/19 10:36:18;;;;;;;39.87;37.17;;;9.50;99.70;;;;;;4435084;32;20143;-61
2022/02/19 10:38:56;;;;;;;41.07;38.83;;;9.50;99.90;;;;;;4433680;32;20164;-61
2022/02/19 10:41:34;;;;;;;39.97;37.40;;;9.50;99.40;;;;;;4432855;32;20174;-61
2022/02/19 10:44:19;;;;;;;41.30;38.53;;;9.40;99.20;;;;;;4433296;32;20223;-61
2022/02/19 10:46:46;;;;;;;42.70;40.33;;;9.40;99.90;;;;;;4433848;32;20204;-61
2022/02/19 10:49:13;;;;;;;43.73;41.07;;;9.60;99.90;;;;;;4434163;32;20191;-61
2022/02/19 10:51:43;;;;;;;48.37;45.73;;;9.30;99.90;;;;;;4432877;32;20224;-61
2022/02/19 10:54:10;;;;;;;47.10;44.57;;;9.10;99.90;;;;;;4434319;32;20166;-60
2022/02/19 10:56:38;;;;;;;44.33;41.00;;;8.80;99.90;;;;;;4433438;32;20162;-60
2022/02/19 10:59:07;;;;;;;45.93;43.33;;;8.50;99.90;;;;;;4430569;32;20167;-61
2022/02/19 11:01:40;;;;;;;39.80;37.67;;;8.30;99.90;;;;;;4432526;32;20200;-60
2022/02/19 11:04:10;;;;;;;43.00;40.17;;;8.20;99.90;;;;;;4426025;32;20199;-60
2022/02/19 11:06:38;;;;;;;46.87;43.97;;;8.20;99.90;;;;;;4421400;32;20241;-61
2022/02/19 11:09:07;;;;;;;43.83;40.97;;;8.30;99.90;;;;;;4420064;32;20136;-60
2022/02/19 11:11:35;;;;;;;46.27;43.17;;;8.60;99.90;;;;;;4432409;32;20167;-62
2022/02/19 11:14:03;;;;;;;44.07;41.33;;;8.90;99.90;;;;;;4433304;32;20201;-61
2022/02/19 11:16:32;;;;;;;43.80;41.00;;;9.20;99.90;;;;;;4433265;32;20131;-63
2022/02/19 11:19:00;;;;;;;43.80;41.07;;;9.60;99.80;;;;;;4432837;32;20621;-61
2022/02/19 11:21:27;;;;;;;49.30;46.47;;;9.90;99.50;;;;;;4429480;32;20601;-63
2022/02/19 11:23:54;;;;;;;50.67;47.73;;;10.00;99.00;;;;;;4433076;32;20177;-61
2022/02/19 11:26:24;;;;;;;51.83;49.10;;;9.80;98.80;;;;;;4432884;32;20204;-61
2022/02/19 11:28:52;;;;;;;51.97;48.87;;;9.70;99.80;;;;;;4434618;32;20142;-63
2022/02/19 11:31:23;;;;;;;57.23;54.13;;;9.90;99.90;;;;;;4426200;32;20185;-61
2022/02/19 11:33:55;;;;;;;57.57;54.37;;;10.30;99.90;;;;;;4422830;32;20165;-61
2022/02/19 11:36:26;;;;;;;59.60;56.80;;;10.30;99.90;;;;;;4423082;32;20158;-61
2022/02/19 11:38:54;;;;;;;56.27;53.17;;;9.90;99.90;;;;;;4422502;32;20188;-61
2022/02/19 11:41:35;;;;;;;55.67;52.43;;;9.40;99.90;;;;;;4422144;32;20622;-61
2022/02/19 11:44:02;;;;;;;54.03;50.50;;;9.00;99.90;;;;;;4420825;32;20243;-62
2022/02/19 11:46:48;;;;;;;55.57;52.47;;;8.70;99.90;;;;;;4419480;32;20618;-61
2022/02/19 11:49:22;;;;;;;51.73;49.03;;;8.50;99.90;;;;;;4421822;32;20189;-61
2022/02/19 11:52:20;;;;;;;53.67;50.23;;;8.50;99.90;;;;;;4412497;32;20201;-60
2022/02/19 11:54:47;;;;;;;50.63;47.23;;;8.60;99.90;;;;;;4359672;32;20168;-61
2022/02/19 11:57:17;;;;;;;47.73;45.13;;;9.00;99.90;;;;;;4360937;32;20739;-62
2022/02/19 11:59:46;;;;;;;50.70;47.83;;;9.10;99.90;;;;;;4357858;32;20221;-60
2022/02/19 12:02:18;;;;;;;47.50;44.90;;;9.20;99.90;;;;;;4356657;33;20152;-60
2022/02/19 12:04:45;;;;;;;43.70;41.27;;;9.30;99.40;;;;;;4358960;33;20165;-60
2022/02/19 12:07:15;;;;;;;45.07;42.00;;;9.30;98.70;;;;;;4359872;33;20268;-61
2022/02/19 12:10:00;;;;;;;45.97;43.30;;;9.20;98.90;;;;;;4359010;32;20221;-60
2022/02/19 12:12:29;;;;;;;42.67;40.27;;;9.30;99.00;;;;;;4358376;32;20164;-61
2022/02/19 12:17:46;;;;;;;42.77;40.47;;;9.50;99.40;;;;;;4359175;32;20187;-61
2022/02/19 12:20:32;;;;;;;42.20;39.83;;;9.60;98.90;;;;;;4353931;33;20198;-61
2022/02/19 12:23:02;;;;;;;41.53;38.93;;;9.70;98.60;;;;;;4357133;32;20214;-62
2022/02/19 12:26:10;;;;;;;41.63;39.20;;;9.70;98.20;;;;;;4357749;32;20161;-61
2022/02/19 12:29:27;;;;;;;39.10;37.03;;;9.50;98.10;;;;;;4351573;32;20284;-62
2022/02/19 12:32:02;;;;;;;36.43;34.40;;;9.50;97.80;;;;;;4409013;32;20159;-61
2022/02/19 12:34:32;;;;;;;45.33;42.67;;;9.30;98.30;;;;;;4408287;32;20241;-62
2022/02/19 12:37:02;;;;;;;36.40;33.97;;;9.30;98.50;;;;;;4408610;32;20255;-61
2022/02/19 12:39:35;;;;;;;42.30;39.17;;;9.10;98.30;;;;;;4408195;32;20276;-60
2022/02/19 12:42:02;;;;;;;41.10;38.53;;;9.10;98.90;;;;;;4418342;32;20151;-61
2022/02/19 12:44:34;;;;;;;38.37;36.37;;;9.20;99.00;;;;;;4414957;32;20216;-61
2022/02/19 12:47:01;;;;;;;43.23;40.93;;;9.20;98.90;;;;;;4417755;32;20168;-61
2022/02/19 12:49:28;;;;;;;42.87;40.67;;;9.20;98.10;;;;;;4413511;32;20167;-60
2022/02/19 12:51:56;;;;;;;34.97;32.77;;;9.20;98.30;;;;;;4410575;32;20658;-61
2022/02/19 12:54:33;;;;;;;41.27;38.60;;;9.30;98.40;;;;;;4410563;32;20185;-60
2022/02/19 12:57:10;;;;;;;41.13;38.90;;;9.20;98.60;;;;;;4410278;32;20255;-61